sensor_id;sensor_type;location;lat;lon;timestamp;P1;durP1;ratioP1;P2;durP2;ratioP2
7211;SDS011;3647;48.792;9.802;2022-09-17T06:47:32;5.00;;;3.17;;
7211;SDS011;3647;48.792;9.802;2022-09-17T06:49:59;8.27;;;3.63;;
7211;SDS011;3647;48.792;9.802;2022-09-17T06:52:26;3.03;;;2.50;;
7211;SDS011;3647;48.792;9.802;2022-09-17T06:54:52;3.77;;;3.07;;
7211;SDS011;3647;48.792;9.802;2022-09-17T06:57:20;6.03;;;2.87;;
7211;SDS011;3647;48.792;9.802;2022-09-17T06:59:47;5.57;;;3.13;;
7211;SDS011;3647;48.792;9.802;2022-09-17T07:02:15;6.03;;;3.00;;
7211;SDS011;3647;48.792;9.802;2022-09-17T07:04:44;3.13;;;2.70;;
7211;SDS011;3647;48.792;9.802;2022-09-17T07:07:10;5.83;;;3.07;;
7211;SDS011;3647;48.792;9.802;2022-09-17T07:09:37;7.30;;;2.80;;
7211;SDS011;3647;48.792;9.802;2022-09-17T07:12:05;3.43;;;2.63;;
7211;SDS011;3647;48.792;9.802;2022-09-17T07:14:33;5.77;;;2.60;;
7211;SDS011;3647;48.792;9.802;2022-09-17T07:17:00;6.87;;;3.77;;
7211;SDS011;3647;48.792;9.802;2022-09-17T07:19:27;8.67;;;2.80;;
7211;SDS011;3647;48.792;9.802;2022-09-17T07:21:55;3.17;;;2.87;;
7211;SDS011;3647;48.792;9.802;2022-09-17T07:24:22;6.53;;;3.00;;
7211;SDS011;3647;48.792;9.802;2022-09-17T07:26:49;4.17;;;2.83;;
7211;SDS011;3647;48.792;9.802;2022-09-17T07:29:15;8.10;;;2.80;;
7211;SDS011;3647;48.792;9.802;2022-09-17T07:31:42;3.63;;;3.10;;
7211;SDS011;3647;48.792;9.802;2022-09-17T07:34:09;5.87;;;3.17;;
7211;SDS011;3647;48.792;9.802;2022-09-17T07:36:36;3.43;;;2.73;;
7211;SDS011;3647;48.792;9.802;2022-09-17T07:39:04;3.10;;;2.80;;
7211;SDS011;3647;48.792;9.802;2022-09-17T07:41:31;5.77;;;3.03;;
7211;SDS011;3647;48.792;9.802;2022-09-17T07:43:59;5.50;;;2.83;;
7211;SDS011;3647;48.792;9.802;2022-09-17T07:46:26;5.80;;;2.90;;
7211;SDS011;3647;48.792;9.802;2022-09-17T07:48:54;7.77;;;3.23;;
7211;SDS011;3647;48.792;9.802;2022-09-17T07:51:21;6.07;;;2.97;;
7211;SDS011;3647;48.792;9.802;2022-09-17T07:53:49;5.23;;;2.80;;
7211;SDS011;3647;48.792;9.802;2022-09-17T07:56:18;3.40;;;2.70;;
7211;SDS011;3647;48.792;9.802;2022-09-17T07:58:45;4.30;;;2.70;;
7211;SDS011;3647;48.792;9.802;2022-09-17T08:01:12;5.13;;;3.13;;
7211;SDS011;3647;48.792;9.802;2022-09-17T08:03:40;11.83;;;7.30;;
7211;SDS011;3647;48.792;9.802;2022-09-17T08:06:08;5.37;;;3.50;;
7211;SDS011;3647;48.792;9.802;2022-09-17T08:08:37;3.50;;;3.17;;
7211;SDS011;3647;48.792;9.802;2022-09-17T08:11:08;6.40;;;3.20;;
7211;SDS011;3647;48.792;9.802;2022-09-17T08:13:37;4.00;;;3.60;;
7211;SDS011;3647;48.792;9.802;2022-09-17T08:16:04;5.20;;;2.93;;
7211;SDS011;3647;48.792;9.802;2022-09-17T08:18:33;2.80;;;2.60;;
7211;SDS011;3647;48.792;9.802;2022-09-17T08:21:01;6.13;;;3.17;;
7211;SDS011;3647;48.792;9.802;2022-09-17T08:23:29;4.57;;;2.80;;
7211;SDS011;3647;48.792;9.802;2022-09-17T08:25:59;5.03;;;3.40;;
7211;SDS011;3647;48.792;9.802;2022-09-17T08:28:27;3.43;;;2.53;;
7211;SDS011;3647;48.792;9.802;2022-09-17T08:30:58;3.13;;;2.73;;
7211;SDS011;3647;48.792;9.802;2022-09-17T08:33:28;2.73;;;2.50;;
7211;SDS011;3647;48.792;9.802;2022-09-17T08:35:56;2.57;;;2.37;;
7211;SDS011;3647;48.792;9.802;2022-09-17T08:38:24;3.50;;;2.73;;
7211;SDS011;3647;48.792;9.802;2022-09-17T08:40:55;4.47;;;2.80;;
7211;SDS011;3647;48.792;9.802;2022-09-17T08:43:30;4.40;;;2.80;;
7211;SDS011;3647;48.792;9.802;2022-09-17T08:46:02;3.10;;;2.80;;
7211;SDS011;3647;48.792;9.802;2022-09-17T08:48:30;2.97;;;2.77;;
7211;SDS011;3647;48.792;9.802;2022-09-17T08:51:05;3.47;;;3.17;;
7211;SDS011;3647;48.792;9.802;2022-09-17T08:53:52;3.47;;;3.00;;
7211;SDS011;3647;48.792;9.802;2022-09-17T08:56:28;5.90;;;3.10;;
7211;SDS011;3647;48.792;9.802;2022-09-17T08:59:03;4.23;;;3.10;;
7211;SDS011;3647;48.792;9.802;2022-09-17T09:01:46;3.53;;;2.70;;
7211;SDS011;3647;48.792;9.802;2022-09-17T09:07:18;6.87;;;3.30;;
7211;SDS011;3647;48.792;9.802;2022-09-17T09:09:50;3.93;;;3.00;;
7211;SDS011;3647;48.792;9.802;2022-09-17T09:12:25;6.77;;;3.50;;
7211;SDS011;3647;48.792;9.802;2022-09-17T09:14:55;4.67;;;2.90;;
7211;SDS011;3647;48.792;9.802;2022-09-17T09:17:28;3.20;;;2.90;;
7211;SDS011;3647;48.792;9.802;2022-09-17T09:20:00;5.03;;;3.23;;
7211;SDS011;3647;48.792;9.802;2022-09-17T09:22:32;4.67;;;3.10;;
7211;SDS011;3647;48.792;9.802;2022-09-17T09:25:14;4.73;;;3.30;;
7211;SDS011;3647;48.792;9.802;2022-09-17T09:27:50;5.90;;;3.33;;
7211;SDS011;3647;48.792;9.802;2022-09-17T09:30:37;7.70;;;3.30;;
7211;SDS011;3647;48.792;9.802;2022-09-17T09:33:14;5.67;;;3.67;;
7211;SDS011;3647;48.792;9.802;2022-09-17T09:35:44;8.80;;;4.20;;
7211;SDS011;3647;48.792;9.802;2022-09-17T09:38:12;7.47;;;3.83;;
7211;SDS011;3647;48.792;9.802;2022-09-17T09:40:47;6.33;;;3.40;;
7211;SDS011;3647;48.792;9.802;2022-09-17T09:43:19;4.67;;;3.73;;
7211;SDS011;3647;48.792;9.802;2022-09-17T09:45:58;6.37;;;3.47;;
7211;SDS011;3647;48.792;9.802;2022-09-17T09:48:40;5.33;;;3.43;;
7211;SDS011;3647;48.792;9.802;2022-09-17T09:51:16;7.80;;;3.37;;
7211;SDS011;3647;48.792;9.802;2022-09-17T09:53:58;8.83;;;5.03;;
7211;SDS011;3647;48.792;9.802;2022-09-17T09:56:41;7.60;;;3.77;;
7211;SDS011;3647;48.792;9.802;2022-09-17T09:59:19;7.20;;;3.80;;
7211;SDS011;3647;48.792;9.802;2022-09-17T10:01:47;5.33;;;3.17;;
7211;SDS011;3647;48.792;9.802;2022-09-17T10:04:16;4.67;;;2.90;;
7211;SDS011;3647;48.792;9.802;2022-09-17T10:06:45;7.00;;;3.50;;
7211;SDS011;3647;48.792;9.802;2022-09-17T10:09:13;6.10;;;2.93;;
7211;SDS011;3647;48.792;9.802;2022-09-17T10:11:42;6.73;;;3.40;;
7211;SDS011;3647;48.792;9.802;2022-09-17T10:14:25;5.53;;;3.43;;
7211;SDS011;3647;48.792;9.802;2022-09-17T10:17:09;9.47;;;3.27;;
7211;SDS011;3647;48.792;9.802;2022-09-17T10:19:47;6.20;;;3.33;;
7211;SDS011;3647;48.792;9.802;2022-09-17T10:22:40;6.97;;;3.20;;
7211;SDS011;3647;48.792;9.802;2022-09-17T10:25:27;10.33;;;3.50;;
7211;SDS011;3647;48.792;9.802;2022-09-17T10:27:56;4.97;;;3.20;;
7211;SDS011;3647;48.792;9.802;2022-09-17T10:30:24;5.43;;;3.00;;
7211;SDS011;3647;48.792;9.802;2022-09-17T10:35:56;5.00;;;3.40;;
7211;SDS011;3647;48.792;9.802;2022-09-17T10:38:26;3.50;;;3.20;;
7211;SDS011;3647;48.792;9.802;2022-09-17T10:41:06;6.60;;;3.07;;
7211;SDS011;3647;48.792;9.802;2022-09-17T10:43:39;5.70;;;3.07;;
7211;SDS011;3647;48.792;9.802;2022-09-17T10:46:07;4.77;;;2.57;;
7211;SDS011;3647;48.792;9.802;2022-09-17T10:48:37;5.00;;;2.73;;
7211;SDS011;3647;48.792;9.802;2022-09-17T10:51:09;4.80;;;3.33;;
7211;SDS011;3647;48.792;9.802;2022-09-17T10:53:54;5.57;;;4.13;;
7211;SDS011;3647;48.792;9.802;2022-09-17T10:56:31;5.83;;;3.47;;
7211;SDS011;3647;48.792;9.802;2022-09-17T10:59:02;7.37;;;3.90;;
7211;SDS011;3647;48.792;9.802;2022-09-17T11:01:42;7.30;;;4.10;;
7211;SDS011;3647;48.792;9.802;2022-09-17T11:04:21;19.57;;;4.53;;
7211;SDS011;3647;48.792;9.802;2022-09-17T11:09:58;3.87;;;2.37;;
7211;SDS011;3647;48.792;9.802;2022-09-17T11:12:35;4.90;;;2.47;;
7211;SDS011;3647;48.792;9.802;2022-09-17T11:15:14;4.17;;;2.33;;
7211;SDS011;3647;48.792;9.802;2022-09-17T11:18:02;2.83;;;2.23;;
7211;SDS011;3647;48.792;9.802;2022-09-17T11:20:52;5.57;;;3.07;;
7211;SDS011;3647;48.792;9.802;2022-09-17T11:23:39;6.63;;;2.40;;
7211;SDS011;3647;48.792;9.802;2022-09-17T11:26:26;7.20;;;3.20;;
7211;SDS011;3647;48.792;9.802;2022-09-17T11:28:59;4.13;;;2.70;;
7211;SDS011;3647;48.792;9.802;2022-09-17T11:31:40;5.03;;;2.70;;
7211;SDS011;3647;48.792;9.802;2022-09-17T11:34:18;5.43;;;2.77;;
7211;SDS011;3647;48.792;9.802;2022-09-17T11:36:53;6.87;;;3.47;;
7211;SDS011;3647;48.792;9.802;2022-09-17T11:39:26;7.13;;;3.23;;
7211;SDS011;3647;48.792;9.802;2022-09-17T11:41:59;4.23;;;3.57;;
7211;SDS011;3647;48.792;9.802;2022-09-17T11:44:30;3.37;;;2.20;;
7211;SDS011;3647;48.792;9.802;2022-09-17T11:47:01;4.13;;;2.27;;
7211;SDS011;3647;48.792;9.802;2022-09-17T11:49:36;4.33;;;2.17;;
7211;SDS011;3647;48.792;9.802;2022-09-17T11:52:10;6.73;;;3.00;;
7211;SDS011;3647;48.792;9.802;2022-09-17T11:54:48;4.47;;;2.63;;
7211;SDS011;3647;48.792;9.802;2022-09-17T11:57:18;6.30;;;2.97;;
7211;SDS011;3647;48.792;9.802;2022-09-17T11:59:48;2.13;;;1.97;;
7211;SDS011;3647;48.792;9.802;2022-09-17T12:02:20;3.93;;;2.20;;
7211;SDS011;3647;48.792;9.802;2022-09-17T12:04:52;2.10;;;1.70;;
7211;SDS011;3647;48.792;9.802;2022-09-17T12:07:32;1.97;;;1.50;;
7211;SDS011;3647;48.792;9.802;2022-09-17T12:10:14;1.50;;;1.40;;
7211;SDS011;3647;48.792;9.802;2022-09-17T12:12:51;1.40;;;1.30;;
7211;SDS011;3647;48.792;9.802;2022-09-17T12:15:22;1.50;;;1.40;;
7211;SDS011;3647;48.792;9.802;2022-09-17T12:17:53;2.80;;;1.60;;
7211;SDS011;3647;48.792;9.802;2022-09-17T12:20:30;1.80;;;1.70;;
7211;SDS011;3647;48.792;9.802;2022-09-17T12:23:01;3.03;;;1.93;;
7211;SDS011;3647;48.792;9.802;2022-09-17T12:25:37;2.03;;;1.70;;
7211;SDS011;3647;48.792;9.802;2022-09-17T12:28:12;1.57;;;1.47;;
7211;SDS011;3647;48.792;9.802;2022-09-17T12:30:45;1.77;;;1.50;;
7211;SDS011;3647;48.792;9.802;2022-09-17T12:33:22;2.30;;;1.57;;
7211;SDS011;3647;48.792;9.802;2022-09-17T12:38:57;3.40;;;1.70;;
7211;SDS011;3647;48.792;9.802;2022-09-17T12:41:44;2.23;;;1.70;;
7211;SDS011;3647;48.792;9.802;2022-09-17T12:44:22;3.70;;;1.60;;
7211;SDS011;3647;48.792;9.802;2022-09-17T12:47:09;1.40;;;1.30;;
7211;SDS011;3647;48.792;9.802;2022-09-17T12:50:06;2.93;;;1.53;;
7211;SDS011;3647;48.792;9.802;2022-09-17T12:52:46;2.43;;;2.23;;
7211;SDS011;3647;48.792;9.802;2022-09-17T12:55:28;2.80;;;1.30;;
7211;SDS011;3647;48.792;9.802;2022-09-17T12:58:10;1.90;;;1.27;;
7211;SDS011;3647;48.792;9.802;2022-09-17T13:00:49;1.33;;;1.23;;
7211;SDS011;3647;48.792;9.802;2022-09-17T13:03:25;1.57;;;1.47;;
7211;SDS011;3647;48.792;9.802;2022-09-17T13:06:12;2.20;;;1.13;;
7211;SDS011;3647;48.792;9.802;2022-09-17T13:12:07;2.17;;;1.50;;
7211;SDS011;3647;48.792;9.802;2022-09-17T13:17:49;1.87;;;1.60;;
7211;SDS011;3647;48.792;9.802;2022-09-17T13:20:20;2.87;;;1.43;;
7211;SDS011;3647;48.792;9.802;2022-09-17T13:22:51;2.67;;;1.77;;
7211;SDS011;3647;48.792;9.802;2022-09-17T13:25:21;1.57;;;1.40;;
7211;SDS011;3647;48.792;9.802;2022-09-17T13:28:02;2.60;;;1.80;;
7211;SDS011;3647;48.792;9.802;2022-09-17T13:36:38;2.30;;;1.83;;
7211;SDS011;3647;48.792;9.802;2022-09-17T13:42:04;1.80;;;1.70;;
7211;SDS011;3647;48.792;9.802;2022-09-17T13:44:35;1.80;;;1.70;;
7211;SDS011;3647;48.792;9.802;2022-09-17T13:49:54;1.87;;;1.77;;
7211;SDS011;3647;48.792;9.802;2022-09-17T13:52:31;3.67;;;1.80;;
7211;SDS011;3647;48.792;9.802;2022-09-17T13:55:00;2.00;;;1.67;;
7211;SDS011;3647;48.792;9.802;2022-09-17T13:57:28;2.90;;;1.73;;
7211;SDS011;3647;48.792;9.802;2022-09-17T13:59:58;3.33;;;2.27;;
7211;SDS011;3647;48.792;9.802;2022-09-17T14:02:27;2.60;;;2.13;;
7211;SDS011;3647;48.792;9.802;2022-09-17T14:08:10;5.47;;;3.80;;
7211;SDS011;3647;48.792;9.802;2022-09-17T14:10:54;2.03;;;1.90;;
7211;SDS011;3647;48.792;9.802;2022-09-17T14:13:24;1.90;;;1.60;;
7211;SDS011;3647;48.792;9.802;2022-09-17T14:15:57;7.13;;;3.90;;
7211;SDS011;3647;48.792;9.802;2022-09-17T14:18:41;4.50;;;2.97;;
7211;SDS011;3647;48.792;9.802;2022-09-17T14:21:10;2.23;;;2.03;;
7211;SDS011;3647;48.792;9.802;2022-09-17T14:23:43;2.97;;;1.93;;
7211;SDS011;3647;48.792;9.802;2022-09-17T14:26:13;1.83;;;1.40;;
7211;SDS011;3647;48.792;9.802;2022-09-17T14:28:55;1.57;;;1.40;;
7211;SDS011;3647;48.792;9.802;2022-09-17T14:31:29;1.07;;;1.07;;
7211;SDS011;3647;48.792;9.802;2022-09-17T14:34:00;3.03;;;1.50;;
7211;SDS011;3647;48.792;9.802;2022-09-17T14:36:28;2.80;;;1.30;;
7211;SDS011;3647;48.792;9.802;2022-09-17T14:39:01;2.07;;;1.90;;
7211;SDS011;3647;48.792;9.802;2022-09-17T14:41:30;1.53;;;1.40;;
7211;SDS011;3647;48.792;9.802;2022-09-17T14:44:01;2.93;;;2.03;;
7211;SDS011;3647;48.792;9.802;2022-09-17T14:46:31;2.33;;;2.07;;
7211;SDS011;3647;48.792;9.802;2022-09-17T14:49:12;1.77;;;1.27;;
7211;SDS011;3647;48.792;9.802;2022-09-17T14:51:40;1.53;;;1.43;;
7211;SDS011;3647;48.792;9.802;2022-09-17T14:54:15;1.23;;;1.20;;
7211;SDS011;3647;48.792;9.802;2022-09-17T14:56:47;3.37;;;2.50;;
7211;SDS011;3647;48.792;9.802;2022-09-17T14:59:19;1.60;;;1.50;;
7211;SDS011;3647;48.792;9.802;2022-09-17T15:01:50;1.63;;;1.23;;
7211;SDS011;3647;48.792;9.802;2022-09-17T15:04:20;2.47;;;1.40;;
7211;SDS011;3647;48.792;9.802;2022-09-17T15:06:49;1.60;;;1.50;;
7211;SDS011;3647;48.792;9.802;2022-09-17T15:09:18;1.77;;;1.60;;
7211;SDS011;3647;48.792;9.802;2022-09-17T15:11:47;3.50;;;1.37;;
7211;SDS011;3647;48.792;9.802;2022-09-17T15:14:20;1.33;;;1.23;;
7211;SDS011;3647;48.792;9.802;2022-09-17T15:16:51;2.63;;;1.70;;
7211;SDS011;3647;48.792;9.802;2022-09-17T15:19:21;4.50;;;3.50;;
7211;SDS011;3647;48.792;9.802;2022-09-17T15:21:52;2.43;;;1.70;;
7211;SDS011;3647;48.792;9.802;2022-09-17T15:24:26;1.40;;;1.30;;
7211;SDS011;3647;48.792;9.802;2022-09-17T15:27:02;1.70;;;1.60;;
7211;SDS011;3647;48.792;9.802;2022-09-17T15:29:35;2.00;;;1.40;;
7211;SDS011;3647;48.792;9.802;2022-09-17T15:32:07;1.70;;;1.50;;
7211;SDS011;3647;48.792;9.802;2022-09-17T15:34:36;2.60;;;1.43;;
7211;SDS011;3647;48.792;9.802;2022-09-17T15:37:04;2.80;;;1.40;;
7211;SDS011;3647;48.792;9.802;2022-09-17T15:39:37;2.53;;;1.43;;
7211;SDS011;3647;48.792;9.802;2022-09-17T15:42:13;2.27;;;1.80;;
7211;SDS011;3647;48.792;9.802;2022-09-17T15:44:43;1.50;;;1.40;;
7211;SDS011;3647;48.792;9.802;2022-09-17T15:50:16;1.97;;;1.87;;
7211;SDS011;3647;48.792;9.802;2022-09-17T15:52:45;2.73;;;1.63;;
7211;SDS011;3647;48.792;9.802;2022-09-17T15:55:35;3.93;;;2.40;;
7211;SDS011;3647;48.792;9.802;2022-09-17T15:58:17;3.37;;;1.70;;
7211;SDS011;3647;48.792;9.802;2022-09-17T16:00:46;2.27;;;1.70;;
7211;SDS011;3647;48.792;9.802;2022-09-17T16:06:35;1.87;;;1.60;;
7211;SDS011;3647;48.792;9.802;2022-09-17T16:09:12;2.40;;;1.70;;
7211;SDS011;3647;48.792;9.802;2022-09-17T16:12:05;3.03;;;1.60;;
7211;SDS011;3647;48.792;9.802;2022-09-17T16:14:32;4.37;;;2.00;;
7211;SDS011;3647;48.792;9.802;2022-09-17T16:17:07;2.83;;;1.90;;
7211;SDS011;3647;48.792;9.802;2022-09-17T16:19:43;2.80;;;1.97;;
7211;SDS011;3647;48.792;9.802;2022-09-17T16:22:10;2.43;;;1.90;;
7211;SDS011;3647;48.792;9.802;2022-09-17T16:24:36;3.10;;;1.63;;
7211;SDS011;3647;48.792;9.802;2022-09-17T16:27:05;2.17;;;1.67;;
7211;SDS011;3647;48.792;9.802;2022-09-17T16:29:32;3.67;;;1.80;;
7211;SDS011;3647;48.792;9.802;2022-09-17T16:31:59;2.90;;;2.03;;
7211;SDS011;3647;48.792;9.802;2022-09-17T16:34:26;2.90;;;2.27;;
7211;SDS011;3647;48.792;9.802;2022-09-17T16:36:53;3.93;;;2.00;;
7211;SDS011;3647;48.792;9.802;2022-09-17T16:39:20;3.60;;;2.13;;
7211;SDS011;3647;48.792;9.802;2022-09-17T16:41:46;4.00;;;2.10;;
7211;SDS011;3647;48.792;9.802;2022-09-17T16:44:16;4.63;;;2.53;;
7211;SDS011;3647;48.792;9.802;2022-09-17T16:46:43;6.97;;;2.37;;
7211;SDS011;3647;48.792;9.802;2022-09-17T16:49:12;2.23;;;1.90;;
7211;SDS011;3647;48.792;9.802;2022-09-17T16:51:39;3.80;;;2.27;;
7211;SDS011;3647;48.792;9.802;2022-09-17T16:54:07;5.70;;;2.90;;
7211;SDS011;3647;48.792;9.802;2022-09-17T16:56:34;3.10;;;1.90;;
7211;SDS011;3647;48.792;9.802;2022-09-17T16:59:01;3.03;;;2.30;;
7211;SDS011;3647;48.792;9.802;2022-09-17T17:01:29;2.33;;;2.10;;
7211;SDS011;3647;48.792;9.802;2022-09-17T17:03:57;5.23;;;1.90;;
7211;SDS011;3647;48.792;9.802;2022-09-17T17:06:24;5.33;;;2.20;;
7211;SDS011;3647;48.792;9.802;2022-09-17T17:08:52;2.70;;;2.10;;
7211;SDS011;3647;48.792;9.802;2022-09-17T17:11:19;2.43;;;2.20;;
7211;SDS011;3647;48.792;9.802;2022-09-17T17:13:46;3.50;;;2.20;;
7211;SDS011;3647;48.792;9.802;2022-09-17T17:16:13;2.23;;;1.87;;
7211;SDS011;3647;48.792;9.802;2022-09-17T17:18:42;2.33;;;2.00;;
7211;SDS011;3647;48.792;9.802;2022-09-17T17:21:10;2.97;;;2.00;;
7211;SDS011;3647;48.792;9.802;2022-09-17T17:23:38;3.07;;;2.10;;
7211;SDS011;3647;48.792;9.802;2022-09-17T17:26:07;3.37;;;2.17;;
7211;SDS011;3647;48.792;9.802;2022-09-17T17:28:34;6.23;;;2.30;;
7211;SDS011;3647;48.792;9.802;2022-09-17T17:31:02;2.60;;;2.30;;
7211;SDS011;3647;48.792;9.802;2022-09-17T17:33:29;3.03;;;2.00;;
7211;SDS011;3647;48.792;9.802;2022-09-17T17:35:59;5.23;;;2.20;;
7211;SDS011;3647;48.792;9.802;2022-09-17T17:38:27;4.77;;;2.60;;
7211;SDS011;3647;48.792;9.802;2022-09-17T17:41:01;2.60;;;2.27;;
7211;SDS011;3647;48.792;9.802;2022-09-17T17:43:29;4.43;;;2.67;;
7211;SDS011;3647;48.792;9.802;2022-09-17T17:45:56;2.30;;;2.10;;
7211;SDS011;3647;48.792;9.802;2022-09-17T17:48:23;4.43;;;2.33;;
7211;SDS011;3647;48.792;9.802;2022-09-17T17:50:50;3.93;;;2.07;;
7211;SDS011;3647;48.792;9.802;2022-09-17T17:53:18;2.47;;;2.20;;
7211;SDS011;3647;48.792;9.802;2022-09-17T17:55:53;2.50;;;2.30;;
7211;SDS011;3647;48.792;9.802;2022-09-17T17:58:21;4.47;;;2.60;;
7211;SDS011;3647;48.792;9.802;2022-09-17T18:00:49;3.83;;;2.47;;
7211;SDS011;3647;48.792;9.802;2022-09-17T18:03:15;2.10;;;1.50;;
7211;SDS011;3647;48.792;9.802;2022-09-17T18:05:44;5.00;;;2.10;;
7211;SDS011;3647;48.792;9.802;2022-09-17T18:08:11;2.63;;;1.77;;
7211;SDS011;3647;48.792;9.802;2022-09-17T18:10:39;2.63;;;2.13;;
7211;SDS011;3647;48.792;9.802;2022-09-17T18:13:06;2.77;;;2.53;;
7211;SDS011;3647;48.792;9.802;2022-09-17T18:15:33;2.17;;;1.97;;
7211;SDS011;3647;48.792;9.802;2022-09-17T18:18:00;1.90;;;1.80;;
7211;SDS011;3647;48.792;9.802;2022-09-17T18:20:27;2.93;;;2.10;;
7211;SDS011;3647;48.792;9.802;2022-09-17T18:22:54;2.90;;;2.10;;
7211;SDS011;3647;48.792;9.802;2022-09-17T18:25:21;1.77;;;1.67;;
7211;SDS011;3647;48.792;9.802;2022-09-17T18:27:49;2.07;;;1.97;;
7211;SDS011;3647;48.792;9.802;2022-09-17T18:30:16;3.20;;;2.10;;
7211;SDS011;3647;48.792;9.802;2022-09-17T18:32:46;6.47;;;2.27;;
7211;SDS011;3647;48.792;9.802;2022-09-17T18:35:12;4.07;;;2.33;;
7211;SDS011;3647;48.792;9.802;2022-09-17T18:37:43;2.03;;;1.83;;
7211;SDS011;3647;48.792;9.802;2022-09-17T18:40:11;2.13;;;1.93;;
7211;SDS011;3647;48.792;9.802;2022-09-17T18:42:37;2.77;;;1.80;;
7211;SDS011;3647;48.792;9.802;2022-09-17T18:45:06;2.73;;;1.80;;
7211;SDS011;3647;48.792;9.802;2022-09-17T18:47:34;1.90;;;1.60;;
7211;SDS011;3647;48.792;9.802;2022-09-17T18:50:02;2.80;;;1.70;;
7211;SDS011;3647;48.792;9.802;2022-09-17T18:52:28;2.00;;;1.90;;
7211;SDS011;3647;48.792;9.802;2022-09-17T18:54:55;2.00;;;1.90;;
7211;SDS011;3647;48.792;9.802;2022-09-17T18:57:22;2.00;;;1.80;;
7211;SDS011;3647;48.792;9.802;2022-09-17T18:59:49;2.73;;;1.90;;
7211;SDS011;3647;48.792;9.802;2022-09-17T19:02:17;1.90;;;1.80;;
7211;SDS011;3647;48.792;9.802;2022-09-17T19:04:44;1.80;;;1.70;;
7211;SDS011;3647;48.792;9.802;2022-09-17T19:07:11;1.73;;;1.63;;
7211;SDS011;3647;48.792;9.802;2022-09-17T19:09:38;4.57;;;1.80;;
7211;SDS011;3647;48.792;9.802;2022-09-17T19:12:05;3.00;;;1.83;;
7211;SDS011;3647;48.792;9.802;2022-09-17T19:14:32;2.03;;;1.93;;
7211;SDS011;3647;48.792;9.802;2022-09-17T19:16:59;2.27;;;1.90;;
7211;SDS011;3647;48.792;9.802;2022-09-17T19:19:27;1.90;;;1.80;;
7211;SDS011;3647;48.792;9.802;2022-09-17T19:21:54;2.10;;;1.87;;
7211;SDS011;3647;48.792;9.802;2022-09-17T19:24:21;3.13;;;2.20;;
7211;SDS011;3647;48.792;9.802;2022-09-17T19:26:48;2.97;;;2.40;;
7211;SDS011;3647;48.792;9.802;2022-09-17T19:29:15;2.67;;;2.00;;
7211;SDS011;3647;48.792;9.802;2022-09-17T19:31:42;3.93;;;2.10;;
7211;SDS011;3647;48.792;9.802;2022-09-17T19:34:09;2.77;;;2.33;;
7211;SDS011;3647;48.792;9.802;2022-09-17T19:36:37;6.47;;;2.60;;
7211;SDS011;3647;48.792;9.802;2022-09-17T19:39:04;3.87;;;2.50;;
7211;SDS011;3647;48.792;9.802;2022-09-17T19:41:31;2.90;;;2.30;;
7211;SDS011;3647;48.792;9.802;2022-09-17T19:44:00;3.57;;;2.40;;
7211;SDS011;3647;48.792;9.802;2022-09-17T19:46:27;2.60;;;2.30;;
7211;SDS011;3647;48.792;9.802;2022-09-17T19:48:55;3.47;;;2.60;;
7211;SDS011;3647;48.792;9.802;2022-09-17T19:51:23;5.33;;;2.67;;
7211;SDS011;3647;48.792;9.802;2022-09-17T19:53:53;4.80;;;2.30;;
7211;SDS011;3647;48.792;9.802;2022-09-17T19:56:21;4.23;;;2.20;;
7211;SDS011;3647;48.792;9.802;2022-09-17T19:58:49;3.60;;;2.37;;
7211;SDS011;3647;48.792;9.802;2022-09-17T20:01:16;3.40;;;2.50;;
7211;SDS011;3647;48.792;9.802;2022-09-17T20:03:43;4.70;;;2.40;;
7211;SDS011;3647;48.792;9.802;2022-09-17T20:06:11;4.30;;;2.23;;
7211;SDS011;3647;48.792;9.802;2022-09-17T20:08:42;2.57;;;2.13;;
7211;SDS011;3647;48.792;9.802;2022-09-17T20:11:12;2.83;;;2.63;;
7211;SDS011;3647;48.792;9.802;2022-09-17T20:13:39;3.93;;;2.07;;
7211;SDS011;3647;48.792;9.802;2022-09-17T20:16:06;2.70;;;2.07;;
7211;SDS011;3647;48.792;9.802;2022-09-17T20:18:35;3.53;;;2.73;;
7211;SDS011;3647;48.792;9.802;2022-09-17T20:21:05;2.70;;;2.23;;
7211;SDS011;3647;48.792;9.802;2022-09-17T20:23:32;3.87;;;2.10;;
7211;SDS011;3647;48.792;9.802;2022-09-17T20:25:59;2.30;;;2.10;;
7211;SDS011;3647;48.792;9.802;2022-09-17T20:28:28;2.10;;;1.80;;
7211;SDS011;3647;48.792;9.802;2022-09-17T20:30:59;1.97;;;1.73;;
7211;SDS011;3647;48.792;9.802;2022-09-17T20:33:27;1.87;;;1.70;;
7211;SDS011;3647;48.792;9.802;2022-09-17T20:35:57;2.23;;;2.07;;
7211;SDS011;3647;48.792;9.802;2022-09-17T20:38:24;1.90;;;1.80;;
7211;SDS011;3647;48.792;9.802;2022-09-17T20:40:51;1.73;;;1.63;;
7211;SDS011;3647;48.792;9.802;2022-09-17T20:43:18;2.73;;;2.07;;
7211;SDS011;3647;48.792;9.802;2022-09-17T20:45:52;3.33;;;1.73;;
7211;SDS011;3647;48.792;9.802;2022-09-17T20:48:19;2.53;;;2.00;;
7211;SDS011;3647;48.792;9.802;2022-09-17T20:50:53;2.80;;;1.93;;
7211;SDS011;3647;48.792;9.802;2022-09-17T20:53:20;3.57;;;1.93;;
7211;SDS011;3647;48.792;9.802;2022-09-17T20:55:52;2.20;;;1.63;;
7211;SDS011;3647;48.792;9.802;2022-09-17T20:58:20;4.37;;;2.40;;
7211;SDS011;3647;48.792;9.802;2022-09-17T21:00:47;2.17;;;1.80;;
7211;SDS011;3647;48.792;9.802;2022-09-17T21:03:16;1.60;;;1.50;;
7211;SDS011;3647;48.792;9.802;2022-09-17T21:05:44;2.07;;;1.80;;
7211;SDS011;3647;48.792;9.802;2022-09-17T21:08:11;4.50;;;1.90;;
7211;SDS011;3647;48.792;9.802;2022-09-17T21:10:40;2.07;;;1.77;;
7211;SDS011;3647;48.792;9.802;2022-09-17T21:13:07;2.17;;;1.73;;
7211;SDS011;3647;48.792;9.802;2022-09-17T21:15:34;3.43;;;2.10;;
7211;SDS011;3647;48.792;9.802;2022-09-17T21:18:01;4.83;;;1.90;;
